createdAt,value
2023-04-03T00:03:07.308Z,0
2023-04-03T00:06:32.578Z,0
2023-04-03T00:09:57.853Z,0
2023-04-03T00:13:23.105Z,0
2023-04-03T00:16:48.361Z,0
2023-04-03T00:20:13.650Z,0
2023-04-03T00:23:38.956Z,0
2023-04-03T00:27:04.271Z,0
2023-04-03T00:30:29.597Z,0
2023-04-03T00:33:54.832Z,0
2023-04-03T00:37:20.107Z,0
2023-04-03T00:40:45.404Z,0
2023-04-03T00:44:10.714Z,0
2023-04-03T00:47:36.131Z,0
2023-04-03T00:51:01.228Z,0
2023-04-03T00:54:26.534Z,0
2023-04-03T00:57:51.800Z,0
2023-04-03T01:01:17.114Z,0
2023-04-03T01:04:42.458Z,0
2023-04-03T01:08:07.599Z,0
2023-04-03T01:11:32.931Z,0
2023-04-03T01:14:58.275Z,0
2023-04-03T01:18:23.571Z,0
2023-04-03T01:21:48.865Z,0
2023-04-03T01:25:14.136Z,0
2023-04-03T01:28:40.226Z,0
2023-04-03T01:32:05.498Z,0
2023-04-03T01:35:30.884Z,0
2023-04-03T01:38:56.181Z,0
2023-04-03T01:42:21.429Z,0
2023-04-03T01:45:46.720Z,0
2023-04-03T01:49:12.016Z,0
2023-04-03T01:52:37.294Z,0
2023-04-03T01:56:02.687Z,0
2023-04-03T01:59:28.004Z,0
2023-04-03T02:02:53.291Z,0
2023-04-03T02:06:18.564Z,0
2023-04-03T02:09:43.895Z,0
2023-04-03T02:13:09.171Z,0
2023-04-03T02:16:34.520Z,0
2023-04-03T02:20:01.172Z,0
2023-04-03T02:23:26.498Z,0
2023-04-03T02:26:51.793Z,0
2023-04-03T02:30:17.085Z,0
2023-04-03T02:33:42.350Z,0
2023-04-03T02:37:07.658Z,0
2023-04-03T02:40:33.004Z,0
2023-04-03T02:43:58.335Z,0
2023-04-03T02:47:23.625Z,0
2023-04-03T02:50:48.922Z,0
2023-04-03T02:54:14.185Z,0
2023-04-03T02:57:39.511Z,0
2023-04-03T03:01:04.804Z,0
2023-04-03T03:04:30.137Z,0
2023-04-03T03:07:55.405Z,0
2023-04-03T03:11:20.698Z,0
2023-04-03T03:14:46.040Z,0
2023-04-03T03:18:11.357Z,0
2023-04-03T03:21:36.855Z,0
2023-04-03T03:25:02.164Z,0
2023-04-03T03:28:27.489Z,0
2023-04-03T03:31:52.872Z,0
2023-04-03T03:35:18.111Z,0
2023-04-03T03:38:43.555Z,0
2023-04-03T03:42:08.742Z,0
2023-04-03T03:45:34.087Z,0
2023-04-03T03:48:59.338Z,0
2023-04-03T03:52:24.637Z,0
2023-04-03T03:55:49.979Z,0
2023-04-03T03:59:15.224Z,0
2023-04-03T04:02:40.663Z,0
2023-04-03T04:06:05.971Z,0
2023-04-03T04:09:31.284Z,0
2023-04-03T04:12:58.496Z,0
2023-04-03T04:16:21.877Z,0
2023-04-03T04:19:47.197Z,0
2023-04-03T04:23:12.587Z,0
2023-04-03T04:26:37.867Z,0
2023-04-03T04:30:03.145Z,0
2023-04-03T04:33:28.287Z,0
2023-04-03T04:36:53.604Z,0
2023-04-03T04:40:18.646Z,1
2023-04-03T04:43:43.848Z,1
2023-04-03T04:47:09.048Z,2
2023-04-03T04:50:34.201Z,2
2023-04-03T04:53:59.382Z,3
2023-04-03T04:57:24.608Z,4
2023-04-03T05:00:49.729Z,5
2023-04-03T05:04:14.972Z,6
2023-04-03T05:07:40.100Z,7
2023-04-03T05:11:05.296Z,9
2023-04-03T05:14:30.491Z,13
2023-04-03T05:17:55.655Z,12
2023-04-03T05:21:20.863Z,16
2023-04-03T05:24:46.042Z,13
2023-04-03T05:28:11.206Z,15
2023-04-03T05:31:36.449Z,16
2023-04-03T05:35:01.641Z,24
2023-04-03T05:38:26.793Z,27
2023-04-03T05:41:51.942Z,25
2023-04-03T05:45:17.162Z,31
2023-04-03T05:48:42.363Z,31
2023-04-03T05:52:07.582Z,34
2023-04-03T05:55:32.808Z,29
2023-04-03T05:58:57.973Z,41
2023-04-03T06:02:23.262Z,45
2023-04-03T06:05:48.457Z,56
2023-04-03T06:09:13.613Z,33
2023-04-03T06:12:38.949Z,49
2023-04-03T06:16:04.523Z,46
2023-04-03T06:19:29.741Z,57
2023-04-03T06:22:54.939Z,69
2023-04-03T06:26:20.160Z,161
2023-04-03T06:29:45.369Z,163
2023-04-03T06:33:10.553Z,152
2023-04-03T06:36:35.926Z,125
2023-04-03T06:40:01.323Z,122
2023-04-03T06:43:26.258Z,178
2023-04-03T06:46:51.578Z,208
2023-04-03T06:50:16.728Z,153
2023-04-03T06:53:41.954Z,178
2023-04-03T06:57:07.130Z,208
2023-04-03T07:00:32.287Z,304
2023-04-03T07:03:57.490Z,239
2023-04-03T07:07:22.786Z,267
2023-04-03T07:10:48.273Z,260
2023-04-03T07:14:15.475Z,176
2023-04-03T07:17:41.546Z,183
2023-04-03T07:21:06.704Z,499
2023-04-03T07:24:31.887Z,331
2023-04-03T07:28:01.585Z,659
2023-04-03T07:31:27.241Z,243
2023-04-03T07:34:53.206Z,335
2023-04-03T07:38:18.935Z,345
2023-04-03T07:41:44.086Z,336
2023-04-03T07:45:09.289Z,399
2023-04-03T07:48:34.447Z,476
2023-04-03T07:51:59.630Z,368
2023-04-03T07:55:24.832Z,523
2023-04-03T07:58:50.099Z,393
2023-04-03T08:02:15.412Z,300
2023-04-03T08:05:40.681Z,388
2023-04-03T08:09:06.035Z,252
2023-04-03T08:12:31.340Z,570
2023-04-03T08:15:56.531Z,471
2023-04-03T08:19:26.389Z,442
2023-04-03T08:22:47.034Z,925
2023-04-03T08:26:12.383Z,750
2023-04-03T08:29:37.641Z,480
2023-04-03T08:33:02.847Z,405
2023-04-03T08:36:28.048Z,377
2023-04-03T08:39:53.324Z,393
2023-04-03T08:43:18.626Z,383
2023-04-03T08:46:44.081Z,227
2023-04-03T08:50:10.628Z,219
2023-04-03T08:53:34.637Z,287
2023-04-03T08:56:59.981Z,249
2023-04-03T09:00:25.283Z,216
2023-04-03T09:03:50.705Z,301
2023-04-03T09:07:15.838Z,357
2023-04-03T09:10:41.113Z,322
2023-04-03T09:14:06.743Z,305
2023-04-03T09:17:32.079Z,340
2023-04-03T09:20:57.599Z,317
2023-04-03T09:24:22.785Z,360
2023-04-03T09:27:48.217Z,284
2023-04-03T09:31:13.498Z,311
2023-04-03T09:34:38.780Z,982
2023-04-03T09:38:04.191Z,813
2023-04-03T09:41:29.437Z,359
2023-04-03T09:44:54.732Z,372
2023-04-03T09:48:20.093Z,397
2023-04-03T09:51:45.388Z,331
2023-04-03T09:55:10.838Z,291
2023-04-03T09:58:43.086Z,321
2023-04-03T10:02:01.849Z,897
2023-04-03T10:05:27.201Z,483
2023-04-03T10:08:52.827Z,442
2023-04-03T10:12:18.223Z,263
2023-04-03T10:15:43.381Z,978
2023-04-03T10:19:08.643Z,618
2023-04-03T10:22:33.917Z,624
2023-04-03T10:25:59.247Z,891
2023-04-03T10:29:24.631Z,955
2023-04-03T10:32:49.927Z,989
2023-04-03T10:36:15.076Z,985
2023-04-03T10:39:40.325Z,1016
2023-04-03T10:43:05.569Z,1068
2023-04-03T10:46:30.929Z,1084
2023-04-03T10:49:59.810Z,1102
2023-04-03T10:53:21.392Z,1196
2023-04-03T10:56:46.659Z,1301
2023-04-03T11:00:11.964Z,1178
2023-04-03T11:03:37.433Z,813
2023-04-03T11:07:02.576Z,452
2023-04-03T11:10:27.854Z,354
2023-04-03T11:13:53.438Z,430
2023-04-03T11:17:18.825Z,667
2023-04-03T11:20:44.452Z,270
2023-04-03T11:24:09.794Z,650
2023-04-03T11:27:35.299Z,400
2023-04-03T11:31:00.714Z,506
2023-04-03T11:34:26.299Z,551
2023-04-03T11:37:51.771Z,545
2023-04-03T11:41:17.206Z,1168
2023-04-03T11:44:42.764Z,644
2023-04-03T11:48:21.132Z,439
2023-04-03T11:51:33.892Z,364
2023-04-03T11:54:59.891Z,676
2023-04-03T11:58:25.531Z,545
2023-04-03T12:01:51.168Z,1097
2023-04-03T12:05:16.832Z,1036
2023-04-03T12:08:42.587Z,995
2023-04-03T12:12:08.510Z,1001
2023-04-03T12:15:33.869Z,1054
2023-04-03T12:18:59.380Z,1103
2023-04-03T12:22:24.885Z,1173
2023-04-03T12:25:50.314Z,702
2023-04-03T12:29:15.903Z,993
2023-04-03T12:32:41.301Z,949
2023-04-03T12:36:06.847Z,901
2023-04-03T12:39:32.540Z,884
2023-04-03T12:42:58.389Z,892
2023-04-03T12:46:24.170Z,1014
2023-04-03T12:49:51.437Z,1085
2023-04-03T12:53:15.509Z,353
2023-04-03T12:56:41.120Z,1052
2023-04-03T13:00:06.955Z,430
2023-04-03T13:03:32.781Z,424
2023-04-03T13:06:58.236Z,337
2023-04-03T13:10:23.826Z,750
2023-04-03T13:13:49.352Z,757
2023-04-03T13:17:14.953Z,885
2023-04-03T13:20:40.600Z,850
2023-04-03T13:24:14.541Z,394
2023-04-03T13:27:31.882Z,272
2023-04-03T13:30:57.374Z,442
2023-04-03T13:34:22.791Z,443
2023-04-03T13:37:48.252Z,300
2023-04-03T13:41:13.674Z,173
2023-04-03T13:44:39.081Z,724
2023-04-03T13:48:12.814Z,362
2023-04-03T13:51:30.081Z,409
2023-04-03T13:54:55.499Z,383
2023-04-03T13:58:21.623Z,341
2023-04-03T14:01:46.917Z,507
2023-04-03T14:05:12.268Z,535
2023-04-03T14:08:43.167Z,674
2023-04-03T14:12:02.960Z,417
2023-04-03T14:15:28.317Z,309
2023-04-03T14:18:53.879Z,212
2023-04-03T14:22:19.186Z,200
2023-04-03T14:25:44.479Z,398
2023-04-03T14:29:09.805Z,553
2023-04-03T14:32:35.120Z,361
2023-04-03T14:36:00.450Z,261
2023-04-03T14:39:25.664Z,196
2023-04-03T14:42:50.927Z,129
2023-04-03T14:46:16.308Z,169
2023-04-03T14:49:41.576Z,481
2023-04-03T14:53:06.879Z,423
2023-04-03T14:56:32.176Z,205
2023-04-03T14:59:57.484Z,216
2023-04-03T15:03:22.972Z,179
2023-04-03T15:06:48.185Z,162
2023-04-03T15:39:11.005Z,4
2023-04-03T15:42:36.255Z,191
2023-04-03T15:46:01.599Z,216
2023-04-03T15:49:26.824Z,184
2023-04-03T15:52:52.061Z,125
2023-04-03T15:56:17.318Z,92
2023-04-03T15:59:42.581Z,98
2023-04-03T16:03:07.915Z,116
2023-04-03T16:06:33.126Z,111
2023-04-03T16:09:58.378Z,82
2023-04-03T16:13:23.639Z,90
2023-04-03T16:16:48.851Z,122
2023-04-03T16:20:14.092Z,141
2023-04-03T16:23:39.302Z,94
2023-04-03T16:27:04.551Z,67
2023-04-03T16:30:29.877Z,56
2023-04-03T16:33:55.108Z,52
2023-04-03T16:37:20.424Z,54
2023-04-03T16:40:45.720Z,59
2023-04-03T16:44:10.976Z,68
2023-04-03T16:47:36.315Z,58
2023-04-03T16:51:01.578Z,49
2023-04-03T16:54:27.101Z,50
2023-04-03T16:57:52.387Z,48
2023-04-03T17:01:17.678Z,44
2023-04-03T17:04:42.993Z,38
2023-04-03T17:08:08.140Z,24
2023-04-03T17:14:58.709Z,18
2023-04-03T17:18:23.966Z,19
2023-04-03T17:21:49.226Z,20
2023-04-03T17:25:14.476Z,14
2023-04-03T17:28:39.741Z,12
2023-04-03T17:32:05.221Z,11
2023-04-03T17:35:30.777Z,8
2023-04-03T17:38:56.406Z,6
2023-04-03T17:42:22.004Z,4
2023-04-03T17:45:47.616Z,3
2023-04-03T17:49:13.141Z,3
2023-04-03T17:52:38.721Z,2
2023-04-03T17:56:04.367Z,2
2023-04-03T17:59:30.004Z,1
2023-04-03T18:02:55.515Z,1
2023-04-03T18:06:21.052Z,0
2023-04-03T18:09:46.707Z,0
2023-04-03T18:13:12.331Z,0
2023-04-03T18:16:37.906Z,0
2023-04-03T18:20:03.382Z,0
2023-04-03T18:23:29.640Z,0
2023-04-03T18:26:59.662Z,0
2023-04-03T18:30:25.242Z,0
2023-04-03T18:33:50.778Z,0
2023-04-03T18:37:17.458Z,0
2023-04-03T18:40:42.976Z,0
2023-04-03T18:44:08.024Z,0
2023-04-03T18:47:33.369Z,0
2023-04-03T18:50:58.565Z,0
2023-04-03T18:54:25.273Z,0
2023-04-03T18:57:50.516Z,0
2023-04-03T19:01:15.904Z,0
2023-04-03T19:04:41.119Z,0
2023-04-03T19:08:06.439Z,0
2023-04-03T19:11:31.730Z,0
2023-04-03T19:14:57.039Z,0
2023-04-03T19:18:22.277Z,0
2023-04-03T19:21:47.599Z,0
2023-04-03T19:25:12.848Z,0
2023-04-03T19:28:38.168Z,0
2023-04-03T19:32:03.476Z,0
2023-04-03T19:35:28.783Z,0
2023-04-03T19:38:54.055Z,0
2023-04-03T19:42:19.288Z,0
2023-04-03T19:45:44.581Z,0
2023-04-03T19:49:09.823Z,0
2023-04-03T19:52:35.125Z,0
2023-04-03T19:56:00.464Z,0
2023-04-03T19:59:25.711Z,0
2023-04-03T20:02:51.025Z,0
2023-04-03T20:06:16.288Z,0
2023-04-03T20:09:41.591Z,0
2023-04-03T20:13:07.037Z,0
2023-04-03T20:16:32.290Z,0
2023-04-03T20:19:57.594Z,0
2023-04-03T20:23:22.941Z,0
2023-04-03T20:26:48.258Z,0
2023-04-03T20:30:13.648Z,0
2023-04-03T20:33:39.037Z,0
2023-04-03T20:37:04.356Z,0
2023-04-03T20:40:29.666Z,0
2023-04-03T20:43:54.981Z,0
2023-04-03T20:47:20.409Z,0
2023-04-03T20:50:45.637Z,0
2023-04-03T20:54:10.912Z,0
2023-04-03T20:57:36.212Z,0
2023-04-03T21:01:01.575Z,0
2023-04-03T21:04:26.840Z,0
2023-04-03T21:07:52.160Z,0
2023-04-03T21:11:17.454Z,0
2023-04-03T21:14:42.795Z,0
2023-04-03T21:18:08.326Z,0
2023-04-03T21:21:33.403Z,0
2023-04-03T21:24:58.717Z,0
2023-04-03T21:28:24.028Z,0
2023-04-03T21:31:49.368Z,0
2023-04-03T21:35:14.674Z,0
2023-04-03T21:38:40.081Z,0
2023-04-03T21:42:05.339Z,0
2023-04-03T21:45:30.642Z,0
2023-04-03T21:48:56.020Z,0
2023-04-03T21:52:21.317Z,0
2023-04-03T21:55:46.621Z,0
2023-04-03T21:59:12.177Z,0
2023-04-03T22:02:37.257Z,0
2023-04-03T22:06:02.573Z,0
2023-04-03T22:09:27.896Z,0
2023-04-03T22:12:53.306Z,0
2023-04-03T22:16:18.676Z,0
2023-04-03T22:19:44.001Z,0
2023-04-03T22:23:09.415Z,0
2023-04-03T22:26:34.767Z,0
2023-04-03T22:30:00.120Z,0
2023-04-03T22:33:25.403Z,0
2023-04-03T22:36:50.765Z,0
2023-04-03T22:40:16.072Z,0
2023-04-03T22:43:41.475Z,0
2023-04-03T22:47:06.918Z,0
2023-04-03T22:50:32.053Z,0
2023-04-03T22:53:57.399Z,0
2023-04-03T22:57:22.744Z,0
2023-04-03T23:00:48.088Z,0
2023-04-03T23:04:13.435Z,0
2023-04-03T23:07:38.730Z,0
2023-04-03T23:11:04.029Z,0
2023-04-03T23:14:29.343Z,0
2023-04-03T23:17:54.698Z,0
2023-04-03T23:21:19.988Z,0
2023-04-03T23:24:45.320Z,0
2023-04-03T23:28:10.664Z,0
2023-04-03T23:31:35.941Z,0
2023-04-03T23:35:01.210Z,0
2023-04-03T23:38:26.575Z,0
2023-04-03T23:41:51.786Z,0
2023-04-03T23:45:17.074Z,0
2023-04-03T23:48:42.383Z,0
2023-04-03T23:52:07.706Z,0
2023-04-03T23:55:32.993Z,0
2023-04-03T23:58:58.290Z,0
